createdAt,value
2022-08-03T00:00:39.309Z,4.03
2022-08-03T00:03:07.713Z,3.97
2022-08-03T00:05:37.141Z,3.60
2022-08-03T00:08:05.679Z,3.95
2022-08-03T00:10:35.226Z,3.58
2022-08-03T00:13:03.873Z,3.35
2022-08-03T00:15:32.299Z,3.80
2022-08-03T00:18:00.583Z,3.67
2022-08-03T00:20:28.890Z,4.00
2022-08-03T00:22:57.325Z,3.85
2022-08-03T00:25:26.511Z,3.83
2022-08-03T00:27:54.911Z,3.83
2022-08-03T00:30:26.848Z,3.92
2022-08-03T00:32:58.146Z,3.70
2022-08-03T00:35:50.334Z,3.85
2022-08-03T00:38:17.225Z,4.05
2022-08-03T00:40:46.011Z,3.90
2022-08-03T00:43:14.348Z,3.85
2022-08-03T00:45:43.491Z,3.97
2022-08-03T00:48:33.204Z,4.25
2022-08-03T00:51:01.812Z,3.90
2022-08-03T00:53:30.758Z,3.50
2022-08-03T00:55:59.094Z,3.40
2022-08-03T00:58:27.595Z,4.10
2022-08-03T01:00:56.205Z,3.63
2022-08-03T01:03:24.635Z,3.70
2022-08-03T01:06:00.393Z,4.03
2022-08-03T01:08:37.206Z,3.90
2022-08-03T01:11:15.745Z,3.97
2022-08-03T01:14:03.580Z,3.95
2022-08-03T01:16:59.487Z,4.97
2022-08-03T01:19:48.227Z,3.95
2022-08-03T01:22:50.681Z,4.40
2022-08-03T01:25:34.352Z,4.10
2022-08-03T01:28:05.745Z,3.80
2022-08-03T01:30:36.656Z,4.22
2022-08-03T01:33:12.027Z,4.10
2022-08-03T01:35:54.551Z,4.28
2022-08-03T01:38:27.449Z,4.15
2022-08-03T01:40:57.343Z,3.67
2022-08-03T01:44:27.213Z,4.15
2022-08-03T01:46:20.764Z,4.35
2022-08-03T01:48:50.514Z,4.20
2022-08-03T01:51:21.221Z,4.10
2022-08-03T01:53:52.360Z,4.20
2022-08-03T01:56:23.440Z,4.28
2022-08-03T01:58:54.489Z,4.70
2022-08-03T02:01:25.337Z,4.88
2022-08-03T02:04:17.356Z,4.47
2022-08-03T02:07:02.152Z,4.60
2022-08-03T02:09:32.649Z,4.40
2022-08-03T02:12:01.972Z,4.55
2022-08-03T02:14:31.358Z,4.18
2022-08-03T02:17:00.782Z,4.20
2022-08-03T02:19:35.495Z,4.32
2022-08-03T02:22:05.736Z,4.20
2022-08-03T02:24:34.301Z,4.03
2022-08-03T02:27:08.084Z,4.03
2022-08-03T02:29:40.936Z,4.75
2022-08-03T02:32:14.594Z,4.65
2022-08-03T02:34:49.037Z,4.65
2022-08-03T02:37:20.088Z,4.50
2022-08-03T02:42:22.471Z,4.35
2022-08-03T02:44:55.457Z,4.57
2022-08-03T02:47:27.410Z,4.60
2022-08-03T02:49:59.178Z,4.60
2022-08-03T02:55:00.602Z,4.60
2022-08-03T03:00:01.615Z,3.92
2022-08-03T03:02:30.668Z,4.40
2022-08-03T03:05:54.897Z,4.20
2022-08-03T03:07:51.667Z,4.13
2022-08-03T03:10:26.161Z,5.05
2022-08-03T03:12:57.877Z,4.40
2022-08-03T03:15:27.956Z,4.63
2022-08-03T03:17:57.357Z,4.80
2022-08-03T03:20:30.297Z,4.35
2022-08-03T03:23:00.820Z,4.20
2022-08-03T03:25:33.300Z,4.47
2022-08-03T03:28:03.782Z,4.40
2022-08-03T03:30:35.114Z,4.45
2022-08-03T03:33:03.693Z,5.00
2022-08-03T03:35:39.013Z,5.60
2022-08-03T03:38:07.890Z,4.68
2022-08-03T03:40:36.931Z,4.82
2022-08-03T03:43:10.048Z,4.72
2022-08-03T03:45:40.776Z,4.63
2022-08-03T03:48:09.562Z,4.35
2022-08-03T03:50:41.079Z,4.47
2022-08-03T03:53:11.280Z,4.30
2022-08-03T03:56:02.175Z,4.32
2022-08-03T03:58:30.263Z,4.53
2022-08-03T04:00:58.857Z,4.70
2022-08-03T04:03:27.421Z,4.85
2022-08-03T04:06:14.319Z,4.72
2022-08-03T04:09:01.010Z,4.57
2022-08-03T04:11:36.847Z,4.53
2022-08-03T04:14:12.327Z,4.82
2022-08-03T04:16:51.400Z,4.07
2022-08-03T04:19:36.077Z,4.43
2022-08-03T04:22:10.263Z,4.32
2022-08-03T04:24:46.652Z,4.63
2022-08-03T04:27:18.718Z,4.65
2022-08-03T04:29:51.110Z,4.32
2022-08-03T04:32:23.722Z,4.28
2022-08-03T04:34:52.973Z,3.95
2022-08-03T04:37:51.905Z,4.75
2022-08-03T04:40:30.609Z,4.30
2022-08-03T04:43:00.311Z,4.40
2022-08-03T04:45:30.631Z,4.53
2022-08-03T04:47:59.839Z,4.80
2022-08-03T04:50:31.719Z,4.40
2022-08-03T04:53:07.239Z,4.93
2022-08-03T04:55:36.786Z,4.50
2022-08-03T04:58:06.463Z,4.25
2022-08-03T05:00:34.944Z,4.38
2022-08-03T05:03:03.633Z,4.32
2022-08-03T05:05:49.846Z,4.47
2022-08-03T05:08:20.642Z,4.13
2022-08-03T05:10:58.834Z,4.28
2022-08-03T05:13:28.011Z,4.85
2022-08-03T05:15:56.402Z,4.55
2022-08-03T05:18:24.695Z,4.07
2022-08-03T05:20:53.391Z,4.20
2022-08-03T05:23:21.758Z,4.40
2022-08-03T05:25:50.344Z,4.00
2022-08-03T05:28:19.087Z,4.28
2022-08-03T05:30:47.320Z,3.92
2022-08-03T05:33:15.994Z,4.03
2022-08-03T05:35:55.666Z,3.88
2022-08-03T05:38:33.982Z,4.25
2022-08-03T05:43:54.269Z,3.78
2022-08-03T05:46:23.376Z,4.18
2022-08-03T05:48:52.147Z,4.30
2022-08-03T05:51:20.765Z,4.30
2022-08-03T05:53:49.747Z,4.22
2022-08-03T05:56:18.111Z,4.30
2022-08-03T05:58:47.503Z,4.10
2022-08-03T06:01:17.211Z,4.13
2022-08-03T06:03:46.321Z,4.13
2022-08-03T06:06:15.161Z,4.30
2022-08-03T06:08:45.236Z,4.20
2022-08-03T06:11:13.790Z,3.75
2022-08-03T06:13:42.196Z,4.03
2022-08-03T06:16:11.258Z,4.30
2022-08-03T06:18:40.601Z,4.35
2022-08-03T06:21:15.189Z,4.30
2022-08-03T06:23:55.174Z,4.30
2022-08-03T06:26:28.083Z,3.90
2022-08-03T06:28:56.760Z,4.13
2022-08-03T06:31:32.837Z,4.40
2022-08-03T06:34:33.672Z,3.90
2022-08-03T06:36:53.147Z,3.88
2022-08-03T06:39:23.694Z,4.00
2022-08-03T06:41:53.639Z,3.83
2022-08-03T06:44:22.020Z,4.30
2022-08-03T06:46:51.363Z,4.13
2022-08-03T06:49:22.774Z,3.75
2022-08-03T06:52:03.030Z,4.05
2022-08-03T06:54:35.771Z,4.47
2022-08-03T06:57:05.258Z,4.22
2022-08-03T07:00:10.769Z,3.78
2022-08-03T07:02:22.399Z,3.78
2022-08-03T07:04:50.911Z,4.00
2022-08-03T07:07:20.710Z,3.90
2022-08-03T07:09:56.338Z,3.80
2022-08-03T07:12:26.316Z,4.22
2022-08-03T07:15:00.320Z,4.25
2022-08-03T07:17:31.416Z,4.20
2022-08-03T07:20:00.942Z,4.25
2022-08-03T07:22:29.589Z,4.25
2022-08-03T07:24:58.167Z,4.18
2022-08-03T07:27:28.672Z,4.00
2022-08-03T07:29:58.716Z,4.10
2022-08-03T07:32:31.218Z,4.00
2022-08-03T07:35:01.199Z,3.70
2022-08-03T07:37:31.339Z,4.28
2022-08-03T07:40:01.203Z,3.63
2022-08-03T07:42:30.207Z,3.90
2022-08-03T07:45:00.071Z,4.00
2022-08-03T07:47:35.405Z,3.90
2022-08-03T07:50:06.461Z,3.80
2022-08-03T07:52:50.066Z,3.92
2022-08-03T07:58:00.717Z,4.10
2022-08-03T08:00:29.339Z,3.50
2022-08-03T08:02:57.681Z,3.40
2022-08-03T08:05:26.271Z,3.92
2022-08-03T08:07:54.769Z,3.67
2022-08-03T08:10:23.088Z,3.83
2022-08-03T08:12:51.688Z,3.78
2022-08-03T08:15:20.419Z,4.15
2022-08-03T08:17:57.188Z,3.80
2022-08-03T08:20:30.702Z,3.58
2022-08-03T08:23:02.997Z,4.03
2022-08-03T08:25:32.740Z,3.65
2022-08-03T08:28:29.705Z,3.58
2022-08-03T08:30:51.548Z,3.90
2022-08-03T08:33:22.673Z,3.60
2022-08-03T08:35:53.645Z,3.75
2022-08-03T08:38:23.073Z,3.65
2022-08-03T08:40:51.383Z,3.90
2022-08-03T08:43:19.693Z,3.63
2022-08-03T08:45:51.026Z,3.60
2022-08-03T08:48:24.923Z,3.67
2022-08-03T08:50:55.795Z,3.70
2022-08-03T08:53:29.417Z,4.03
2022-08-03T08:56:01.115Z,3.85
2022-08-03T08:58:37.009Z,3.80
2022-08-03T09:01:05.889Z,3.70
2022-08-03T09:03:34.703Z,3.83
2022-08-03T09:06:04.299Z,3.63
2022-08-03T09:08:33.746Z,3.75
2022-08-03T09:11:02.091Z,3.28
2022-08-03T09:13:30.742Z,3.95
2022-08-03T09:16:18.867Z,3.88
2022-08-03T09:18:50.228Z,3.90
2022-08-03T09:21:32.067Z,3.83
2022-08-03T09:24:04.706Z,3.70
2022-08-03T09:26:36.209Z,4.00
2022-08-03T09:29:14.502Z,3.92
2022-08-03T09:31:45.922Z,4.13
2022-08-03T09:34:17.091Z,3.60
2022-08-03T09:36:51.029Z,3.80
2022-08-03T09:39:40.200Z,3.35
2022-08-03T09:42:23.936Z,3.78
2022-08-03T09:44:53.159Z,3.75
2022-08-03T09:47:47.917Z,3.53
2022-08-03T09:50:16.181Z,3.63
2022-08-03T09:52:49.641Z,3.80
2022-08-03T09:55:23.580Z,4.30
2022-08-03T09:58:10.674Z,3.88
2022-08-03T10:01:23.653Z,3.78
2022-08-03T10:04:04.247Z,3.75
2022-08-03T10:06:33.338Z,3.97
2022-08-03T10:09:16.825Z,4.00
2022-08-03T10:11:47.087Z,3.60
2022-08-03T10:14:23.418Z,3.93
2022-08-03T10:16:51.817Z,4.00
2022-08-03T10:19:20.346Z,3.58
2022-08-03T10:21:55.220Z,3.95
2022-08-03T10:24:29.640Z,3.47
2022-08-03T10:27:03.602Z,3.70
2022-08-03T10:29:38.960Z,3.53
2022-08-03T10:32:28.892Z,3.83
2022-08-03T10:35:20.443Z,3.80
2022-08-03T10:37:58.802Z,4.00
2022-08-03T10:40:47.951Z,3.65
2022-08-03T10:43:20.930Z,3.42
2022-08-03T10:45:49.973Z,3.70
2022-08-03T10:48:19.931Z,3.65
2022-08-03T10:50:50.100Z,3.63
2022-08-03T10:53:35.549Z,3.53
2022-08-03T10:56:35.805Z,3.70
2022-08-03T10:59:14.722Z,3.90
2022-08-03T11:01:59.861Z,3.70
2022-08-03T11:04:30.494Z,3.60
2022-08-03T11:07:23.791Z,3.78
2022-08-03T11:09:56.681Z,3.55
2022-08-03T11:12:33.132Z,3.88
2022-08-03T11:15:08.685Z,3.58
2022-08-03T11:17:46.788Z,3.45
2022-08-03T11:20:44.945Z,4.05
2022-08-03T11:23:13.906Z,3.42
2022-08-03T11:26:14.558Z,3.72
2022-08-03T11:28:45.494Z,3.55
2022-08-03T11:31:48.090Z,3.50
2022-08-03T11:34:13.974Z,3.50
2022-08-03T11:37:23.667Z,3.50
2022-08-03T11:39:54.876Z,3.70
2022-08-03T11:42:23.474Z,3.70
2022-08-03T11:44:53.403Z,3.47
2022-08-03T11:47:24.267Z,3.47
2022-08-03T11:49:59.138Z,3.55
2022-08-03T11:52:34.232Z,3.30
2022-08-03T11:55:03.218Z,3.47
2022-08-03T11:58:58.248Z,3.55
2022-08-03T12:00:23.229Z,3.40
2022-08-03T12:02:59.340Z,3.20
2022-08-03T12:05:40.249Z,3.83
2022-08-03T12:08:10.578Z,3.45
2022-08-03T12:10:46.418Z,3.30
2022-08-03T12:14:45.122Z,3.13
2022-08-03T12:16:04.494Z,3.72
2022-08-03T12:18:33.425Z,3.33
2022-08-03T12:21:07.971Z,3.40
2022-08-03T12:23:38.043Z,3.40
2022-08-03T12:26:09.147Z,3.15
2022-08-03T12:28:38.660Z,3.72
2022-08-03T12:31:09.583Z,3.20
2022-08-03T12:34:03.206Z,3.70
2022-08-03T12:36:34.420Z,3.10
2022-08-03T12:39:06.956Z,3.33
2022-08-03T12:41:41.047Z,3.22
2022-08-03T12:44:10.430Z,3.25
2022-08-03T12:46:46.961Z,3.63
2022-08-03T12:49:18.897Z,3.63
2022-08-03T12:51:47.689Z,3.50
2022-08-03T12:54:25.120Z,3.45
2022-08-03T12:57:07.907Z,3.55
2022-08-03T12:59:49.946Z,3.40
2022-08-03T13:02:24.673Z,3.40
2022-08-03T13:04:54.720Z,3.60
2022-08-03T13:07:23.546Z,3.50
2022-08-03T13:09:54.619Z,3.25
2022-08-03T13:12:27.786Z,3.87
2022-08-03T13:15:00.622Z,3.20
2022-08-03T13:17:29.061Z,3.20
2022-08-03T13:19:57.617Z,3.50
2022-08-03T13:22:29.121Z,3.95
2022-08-03T13:24:57.817Z,3.30
2022-08-03T13:28:04.517Z,3.40
2022-08-03T13:30:24.980Z,3.53
2022-08-03T13:33:00.544Z,3.60
2022-08-03T13:35:28.790Z,3.83
2022-08-03T13:37:57.156Z,4.07
2022-08-03T13:40:30.394Z,3.67
2022-08-03T13:42:58.846Z,3.28
2022-08-03T13:45:27.756Z,3.60
2022-08-03T13:47:56.097Z,3.72
2022-08-03T13:50:28.419Z,3.80
2022-08-03T13:52:57.556Z,3.53
2022-08-03T13:55:25.938Z,3.58
2022-08-03T13:58:02.560Z,3.33
2022-08-03T14:00:34.562Z,3.60
2022-08-03T14:03:10.845Z,3.60
2022-08-03T14:05:42.895Z,3.47
2022-08-03T14:08:12.610Z,3.40
2022-08-03T14:10:44.100Z,3.47
2022-08-03T14:13:17.849Z,3.47
2022-08-03T14:15:49.946Z,3.60
2022-08-03T14:18:27.779Z,3.58
2022-08-03T14:21:03.428Z,3.58
2022-08-03T14:23:37.798Z,3.47
2022-08-03T14:26:10.254Z,3.25
2022-08-03T14:28:38.722Z,3.72
2022-08-03T14:31:08.192Z,3.33
2022-08-03T14:33:44.349Z,3.15
2022-08-03T14:36:12.595Z,3.35
2022-08-03T14:38:41.088Z,3.22
2022-08-03T14:41:12.178Z,3.30
2022-08-03T14:44:01.222Z,3.50
2022-08-03T14:46:32.331Z,3.72
2022-08-03T14:49:00.926Z,3.33
2022-08-03T14:51:53.386Z,3.50
2022-08-03T14:54:23.082Z,3.63
2022-08-03T14:56:52.066Z,3.70
2022-08-03T14:59:20.466Z,3.50
2022-08-03T15:02:03.259Z,3.60
2022-08-03T15:04:35.108Z,3.17
2022-08-03T15:07:03.612Z,3.58
2022-08-03T15:09:32.344Z,3.40
2022-08-03T15:12:00.911Z,3.13
2022-08-03T15:14:33.168Z,3.40
2022-08-03T15:17:03.516Z,3.60
2022-08-03T15:20:00.774Z,3.50
2022-08-03T15:22:24.977Z,3.53
2022-08-03T15:25:04.112Z,3.38
2022-08-03T15:28:03.493Z,3.65
2022-08-03T15:30:36.128Z,3.38
2022-08-03T15:33:04.938Z,3.30
2022-08-03T15:35:33.514Z,3.30
2022-08-03T15:38:04.012Z,3.60
2022-08-03T15:40:35.863Z,3.38
2022-08-03T15:43:04.384Z,3.78
2022-08-03T15:45:36.076Z,3.72
2022-08-03T15:48:05.849Z,3.38
2022-08-03T15:50:34.264Z,3.22
2022-08-03T15:53:02.781Z,3.17
2022-08-03T15:55:31.877Z,3.08
2022-08-03T15:59:10.621Z,3.55
2022-08-03T16:00:48.830Z,3.25
2022-08-03T16:03:17.047Z,3.25
2022-08-03T16:05:45.291Z,3.17
2022-08-03T16:08:14.061Z,3.42
2022-08-03T16:10:42.654Z,3.28
2022-08-03T16:13:11.009Z,3.42
2022-08-03T16:15:39.483Z,3.63
2022-08-03T16:18:07.741Z,3.35
2022-08-03T16:20:36.124Z,3.40
2022-08-03T16:23:11.061Z,3.50
2022-08-03T16:25:40.873Z,3.38
2022-08-03T16:28:17.157Z,3.28
2022-08-03T16:30:46.712Z,3.40
2022-08-03T16:33:17.340Z,3.25
2022-08-03T16:35:49.701Z,3.42
2022-08-03T16:38:19.409Z,4.30
2022-08-03T16:40:52.145Z,4.68
2022-08-03T16:43:25.156Z,4.60
2022-08-03T16:45:53.636Z,4.50
2022-08-03T16:48:22.125Z,4.25
2022-08-03T16:50:50.707Z,4.03
2022-08-03T16:53:33.156Z,4.10
2022-08-03T16:56:10.593Z,4.38
2022-08-03T16:58:42.442Z,3.80
2022-08-03T17:01:21.600Z,4.00
2022-08-03T17:04:03.372Z,4.50
2022-08-03T17:06:36.427Z,4.50
2022-08-03T17:09:18.060Z,4.03
2022-08-03T17:11:49.198Z,4.22
2022-08-03T17:14:22.045Z,4.60
2022-08-03T17:16:54.270Z,4.50
2022-08-03T17:19:25.347Z,4.70
2022-08-03T17:22:01.495Z,4.60
2022-08-03T17:24:40.932Z,3.95
2022-08-03T17:27:23.091Z,4.50
2022-08-03T17:30:14.388Z,4.80
2022-08-03T17:32:56.743Z,4.10
2022-08-03T17:35:36.358Z,4.43
2022-08-03T17:38:11.965Z,4.47
2022-08-03T17:40:48.306Z,4.40
2022-08-03T17:46:10.787Z,4.07
2022-08-03T17:48:41.509Z,4.57
2022-08-03T17:53:50.409Z,4.50
2022-08-03T17:56:42.517Z,6.53
2022-08-03T18:02:30.701Z,28.45
2022-08-03T18:07:46.122Z,26.13
2022-08-03T18:10:16.943Z,22.85
2022-08-03T18:12:53.201Z,21.40
2022-08-03T18:15:33.208Z,35.08
2022-08-03T18:18:10.718Z,35.30
2022-08-03T18:20:41.917Z,31.75
2022-08-03T18:23:24.659Z,29.90
2022-08-03T18:26:04.804Z,29.55
2022-08-03T18:32:03.781Z,28.73
2022-08-03T18:34:33.420Z,29.42
2022-08-03T18:37:07.817Z,27.85
2022-08-03T18:39:49.696Z,27.95
2022-08-03T18:42:25.910Z,27.83
2022-08-03T18:44:56.303Z,27.00
2022-08-03T18:48:07.311Z,27.25
2022-08-03T18:54:04.125Z,26.65
2022-08-03T18:59:02.270Z,26.55
2022-08-03T19:02:00.162Z,28.20
2022-08-03T19:04:41.469Z,26.42
2022-08-03T19:07:22.175Z,24.70
2022-08-03T19:09:59.768Z,24.92
2022-08-03T19:12:39.956Z,25.92
2022-08-03T19:15:12.820Z,25.30
2022-08-03T19:18:10.952Z,25.80
2022-08-03T19:20:40.595Z,23.92
2022-08-03T19:23:11.232Z,25.38
2022-08-03T19:25:40.617Z,24.03
2022-08-03T19:28:09.979Z,25.02
2022-08-03T19:30:40.702Z,24.52
2022-08-03T19:33:16.010Z,24.23
2022-08-03T19:38:38.473Z,24.67
2022-08-03T19:41:15.283Z,24.48
2022-08-03T19:43:57.659Z,23.02
2022-08-03T19:46:30.979Z,23.02
2022-08-03T19:49:14.512Z,22.80
2022-08-03T19:52:01.597Z,22.83
2022-08-03T19:54:54.606Z,23.38
2022-08-03T19:59:56.342Z,22.85
2022-08-03T20:02:26.015Z,22.75
2022-08-03T20:07:27.258Z,21.45
2022-08-03T20:09:56.522Z,21.38
2022-08-03T20:12:28.768Z,20.25
2022-08-03T20:14:58.783Z,21.30
2022-08-03T20:17:56.200Z,22.02
2022-08-03T20:20:24.010Z,17.20
2022-08-03T20:22:57.667Z,20.05
2022-08-03T20:25:38.612Z,20.05
2022-08-03T20:28:14.039Z,19.52
2022-08-03T20:30:46.311Z,20.00
2022-08-03T20:33:18.810Z,20.35
2022-08-03T20:35:49.607Z,21.25
2022-08-03T20:38:26.997Z,23.23
2022-08-03T20:40:56.444Z,26.67
2022-08-03T20:43:27.970Z,24.73
2022-08-03T20:46:00.971Z,24.08
2022-08-03T20:48:48.687Z,25.02
2022-08-03T20:51:19.993Z,22.20
2022-08-03T20:53:59.854Z,22.02
2022-08-03T20:56:34.894Z,20.77
2022-08-03T20:59:07.185Z,21.45
2022-08-03T21:04:32.170Z,19.52
2022-08-03T21:07:16.355Z,21.60
2022-08-03T21:09:52.173Z,20.25
2022-08-03T21:12:39.150Z,19.23
2022-08-03T21:13:04.018Z,4.45
2022-08-03T21:13:04.625Z,15.88
2022-08-03T21:13:05.681Z,32.05
2022-08-03T21:13:07.897Z,20.40
2022-08-03T21:13:10.710Z,25.08
2022-08-03T21:15:11.099Z,18.23
2022-08-03T21:18:01.225Z,18.45
2022-08-03T21:20:34.636Z,19.88
2022-08-03T21:23:03.701Z,18.35
2022-08-03T21:25:33.956Z,18.40
2022-08-03T21:28:02.304Z,18.30
2022-08-03T21:30:31.269Z,17.77
2022-08-03T21:32:59.856Z,18.17
2022-08-03T21:35:30.661Z,17.10
2022-08-03T21:38:17.603Z,17.55
2022-08-03T21:40:48.923Z,17.73
2022-08-03T21:45:58.383Z,16.17
2022-08-03T21:48:27.825Z,16.95
2022-08-03T21:50:56.511Z,16.85
2022-08-03T21:53:28.093Z,16.55
2022-08-03T21:56:19.595Z,16.55
2022-08-03T21:59:00.046Z,17.00
2022-08-03T22:01:31.321Z,15.30
2022-08-03T22:04:11.827Z,15.93
2022-08-03T22:06:56.868Z,16.45
2022-08-03T22:09:25.502Z,16.13
2022-08-03T22:11:54.913Z,15.18
2022-08-03T22:14:23.838Z,16.58
2022-08-03T22:16:52.098Z,15.65
2022-08-03T22:19:20.374Z,15.73
2022-08-03T22:21:49.886Z,15.30
2022-08-03T22:24:24.020Z,15.30
2022-08-03T22:27:11.176Z,15.18
2022-08-03T22:29:41.978Z,15.00
2022-08-03T22:32:10.798Z,14.80
2022-08-03T22:34:42.719Z,13.80
2022-08-03T22:37:12.120Z,14.18
2022-08-03T22:39:41.220Z,14.20
2022-08-03T22:42:10.229Z,12.90
2022-08-03T22:44:38.914Z,13.32
2022-08-03T22:47:07.601Z,13.95
2022-08-03T22:49:36.964Z,13.88
2022-08-03T22:52:07.557Z,13.75
2022-08-03T22:54:36.322Z,13.05
2022-08-03T22:57:05.648Z,13.32
2022-08-03T22:59:39.026Z,13.82
2022-08-03T23:02:21.206Z,13.10
2022-08-03T23:04:56.736Z,12.52
2022-08-03T23:07:31.671Z,13.40
2022-08-03T23:10:02.818Z,13.30
2022-08-03T23:12:35.438Z,11.98
2022-08-03T23:15:07.831Z,12.23
2022-08-03T23:18:00.159Z,12.38
2022-08-03T23:20:29.826Z,12.18
2022-08-03T23:22:59.422Z,11.70
2022-08-03T23:25:28.579Z,11.90
2022-08-03T23:28:05.095Z,12.10
2022-08-03T23:30:38.548Z,11.75
2022-08-03T23:33:08.258Z,12.43
2022-08-03T23:36:17.300Z,12.32
2022-08-03T23:38:46.557Z,10.73
2022-08-03T23:41:17.739Z,11.20
2022-08-03T23:43:52.193Z,11.20
2022-08-03T23:46:24.022Z,10.68
2022-08-03T23:48:53.752Z,10.73
2022-08-03T23:51:38.505Z,11.25
2022-08-03T23:54:30.551Z,10.90
2022-08-03T23:59:51.878Z,11.10
